createdAt,value
2022-09-28T00:02:07.285Z,2.9
2022-09-28T00:04:38.336Z,3.0
2022-09-28T00:07:18.921Z,3.0
2022-09-28T00:09:49.512Z,3.0
2022-09-28T00:12:20.088Z,3.1
2022-09-28T00:22:31.146Z,3.1
2022-09-28T00:27:31.894Z,3.2
2022-09-28T00:30:02.498Z,3.3
2022-09-28T00:32:33.075Z,3.3
2022-09-28T00:35:03.683Z,3.2
2022-09-28T00:37:44.294Z,3.2
2022-09-28T00:40:14.953Z,3.3
2022-09-28T00:42:45.735Z,3.2
2022-09-28T00:45:16.331Z,3.3
2022-09-28T00:47:47.022Z,3.2
2022-09-28T00:50:17.617Z,3.3
2022-09-28T00:53:08.226Z,3.2
2022-09-28T00:55:38.809Z,3.2
2022-09-28T00:58:09.398Z,3.2
2022-09-28T01:00:40.112Z,3.3
2022-09-28T01:03:10.964Z,3.2
2022-09-28T01:08:21.709Z,3.3
2022-09-28T01:10:52.311Z,3.4
2022-09-28T01:13:22.913Z,3.3
2022-09-28T01:15:53.561Z,3.3
2022-09-28T01:18:24.363Z,3.3
2022-09-28T01:21:04.956Z,3.3
2022-09-28T01:23:35.574Z,3.4
2022-09-28T01:26:06.169Z,3.4
2022-09-28T01:28:36.781Z,3.4
2022-09-28T01:31:07.540Z,3.5
2022-09-28T01:33:38.368Z,3.5
2022-09-28T01:36:18.962Z,3.5
2022-09-28T01:38:49.556Z,3.5
2022-09-28T01:41:20.192Z,3.5
2022-09-28T01:43:50.791Z,3.5
2022-09-28T01:48:51.549Z,3.5
2022-09-28T01:51:32.161Z,3.6
2022-09-28T01:54:02.740Z,3.7
2022-09-28T01:56:33.316Z,3.6
2022-09-28T01:59:03.920Z,3.7
2022-09-28T02:01:34.688Z,3.7
2022-09-28T02:04:05.366Z,3.7
2022-09-28T02:06:45.948Z,3.7
2022-09-28T02:09:16.683Z,3.7
2022-09-28T02:11:52.124Z,3.7
2022-09-28T02:14:22.741Z,3.7
2022-09-28T02:16:53.327Z,3.7
2022-09-28T02:19:33.933Z,3.7
2022-09-28T02:22:04.511Z,3.7
2022-09-28T02:24:35.175Z,3.7
2022-09-28T02:29:35.936Z,3.8
2022-09-28T02:32:06.524Z,3.8
2022-09-28T02:34:47.134Z,3.9
2022-09-28T02:37:17.727Z,3.9
2022-09-28T02:39:48.322Z,3.9
2022-09-28T02:42:18.899Z,4.0
2022-09-28T02:44:49.514Z,4.0
2022-09-28T02:47:20.123Z,4.1
2022-09-28T02:50:00.744Z,4.3
2022-09-28T02:52:31.329Z,4.3
2022-09-28T02:55:01.938Z,4.3
2022-09-28T02:57:32.513Z,4.3
2022-09-28T03:00:03.130Z,4.4
2022-09-28T03:02:33.737Z,4.4
2022-09-28T03:05:14.337Z,4.4
2022-09-28T03:10:15.058Z,4.4
2022-09-28T03:12:45.662Z,4.4
2022-09-28T03:15:16.260Z,4.5
2022-09-28T03:17:46.853Z,4.5
2022-09-28T03:20:27.439Z,4.5
2022-09-28T03:23:20.038Z,4.5
2022-09-28T03:25:33.329Z,4.5
2022-09-28T03:30:34.081Z,4.6
2022-09-28T03:33:14.671Z,4.5
2022-09-28T03:35:45.278Z,4.5
2022-09-28T03:38:15.876Z,4.5
2022-09-28T03:40:46.527Z,4.5
2022-09-28T03:43:17.325Z,4.5
2022-09-28T03:45:47.922Z,4.5
2022-09-28T03:53:29.099Z,4.4
2022-09-28T03:55:59.674Z,4.5
2022-09-28T03:58:30.284Z,4.4
2022-09-28T04:01:00.941Z,4.4
2022-09-28T04:03:37.274Z,4.4
2022-09-28T04:06:07.852Z,4.4
2022-09-28T04:08:38.442Z,4.3
2022-09-28T04:11:09.025Z,4.3
2022-09-28T04:13:47.814Z,4.3
2022-09-28T04:16:28.456Z,4.3
2022-09-28T04:18:59.192Z,4.3
2022-09-28T04:21:29.771Z,4.3
2022-09-28T04:24:00.365Z,4.2
2022-09-28T04:26:30.971Z,4.2
2022-09-28T04:31:41.819Z,4.2
2022-09-28T04:34:12.660Z,4.1
2022-09-28T04:36:36.813Z,4.1
2022-09-28T04:39:07.473Z,4.1
2022-09-28T04:41:38.121Z,4.1
2022-09-28T04:44:08.746Z,4.0
2022-09-28T04:47:02.955Z,4.0
2022-09-28T04:49:25.429Z,4.0
2022-09-28T04:51:56.014Z,4.0
2022-09-28T04:54:28.972Z,4.1
2022-09-28T04:56:59.564Z,4.1
2022-09-28T04:59:30.173Z,4.3
2022-09-28T05:02:10.809Z,4.3
2022-09-28T05:04:41.650Z,4.3
2022-09-28T05:07:12.231Z,4.3
2022-09-28T05:12:12.964Z,4.3
2022-09-28T05:14:43.581Z,4.4
2022-09-28T05:17:24.150Z,4.4
2022-09-28T05:19:54.738Z,4.5
2022-09-28T05:22:25.312Z,4.5
2022-09-28T05:24:55.921Z,4.5
2022-09-28T05:27:26.516Z,4.5
2022-09-28T05:29:57.099Z,4.6
2022-09-28T05:32:37.673Z,4.7
2022-09-28T05:35:08.267Z,4.7
2022-09-28T05:37:38.865Z,4.7
2022-09-28T05:40:09.471Z,4.6
2022-09-28T05:42:40.189Z,4.7
2022-09-28T05:45:20.791Z,4.7
2022-09-28T05:52:51.861Z,4.8
2022-09-28T05:55:22.449Z,4.8
2022-09-28T05:57:53.154Z,4.9
2022-09-28T06:00:33.775Z,4.9
2022-09-28T06:03:08.008Z,4.9
2022-09-28T06:05:39.457Z,4.9
2022-09-28T06:08:10.099Z,4.9
2022-09-28T06:10:40.675Z,4.9
2022-09-28T06:13:11.269Z,5.1
2022-09-28T06:15:51.869Z,5.1
2022-09-28T06:18:22.506Z,5.1
2022-09-28T06:20:53.088Z,5.1
2022-09-28T06:23:23.702Z,5.2
2022-09-28T06:25:59.285Z,5.2
2022-09-28T06:28:39.898Z,5.2
2022-09-28T06:33:40.645Z,5.3
2022-09-28T06:36:11.239Z,5.3
2022-09-28T06:38:41.791Z,5.3
2022-09-28T06:41:12.367Z,5.4
2022-09-28T06:43:52.993Z,5.4
2022-09-28T06:46:23.638Z,5.4
2022-09-28T06:48:54.423Z,5.5
2022-09-28T06:51:19.591Z,5.5
2022-09-28T06:53:50.158Z,5.6
2022-09-28T06:56:20.871Z,5.6
2022-09-28T06:59:03.622Z,5.6
2022-09-28T07:01:34.240Z,5.6
2022-09-28T07:04:05.043Z,5.6
2022-09-28T07:06:35.716Z,5.6
2022-09-28T07:09:20.799Z,5.6
2022-09-28T07:14:25.775Z,5.6
2022-09-28T07:17:02.388Z,5.6
2022-09-28T07:19:20.687Z,5.5
2022-09-28T07:21:59.476Z,5.6
2022-09-28T07:24:22.725Z,5.5
2022-09-28T07:29:33.445Z,5.4
2022-09-28T07:32:04.007Z,5.4
2022-09-28T07:34:34.648Z,5.4
2022-09-28T07:37:09.278Z,5.4
2022-09-28T07:39:39.880Z,5.4
2022-09-28T07:42:20.478Z,5.4
2022-09-28T07:44:51.072Z,5.5
2022-09-28T07:47:21.639Z,5.3
2022-09-28T07:49:45.712Z,5.3
2022-09-28T07:54:56.463Z,5.4
2022-09-28T07:57:27.734Z,5.4
2022-09-28T08:00:08.356Z,5.3
2022-09-28T08:02:33.620Z,5.4
2022-09-28T08:05:04.287Z,5.2
2022-09-28T08:07:34.865Z,5.3
2022-09-28T08:10:05.459Z,5.3
2022-09-28T08:12:46.065Z,5.3
2022-09-28T08:15:21.064Z,5.4
2022-09-28T08:17:51.638Z,5.2
2022-09-28T08:20:23.554Z,5.2
2022-09-28T08:22:48.348Z,5.2
2022-09-28T08:25:18.964Z,5.2
2022-09-28T08:27:59.552Z,5.3
2022-09-28T08:30:30.195Z,5.4
2022-09-28T08:35:31.128Z,5.4
2022-09-28T08:38:01.742Z,5.5
2022-09-28T08:40:32.428Z,5.4
2022-09-28T08:43:13.245Z,5.4
2022-09-28T08:48:14.005Z,5.6
2022-09-28T08:50:44.601Z,5.6
2022-09-28T08:53:15.173Z,5.6
2022-09-28T08:55:55.774Z,5.6
2022-09-28T08:58:26.382Z,5.6
2022-09-28T09:01:07.037Z,5.6
2022-09-28T09:03:37.870Z,5.7
2022-09-28T09:06:08.436Z,5.7
2022-09-28T09:08:39.244Z,5.7
2022-09-28T09:11:19.845Z,5.9
2022-09-28T09:16:20.610Z,6.1
2022-09-28T09:18:51.346Z,6.0
2022-09-28T09:21:21.911Z,6.2
2022-09-28T09:23:52.508Z,6.2
2022-09-28T09:26:33.090Z,6.3
2022-09-28T09:29:03.690Z,6.5
2022-09-28T09:31:34.226Z,6.4
2022-09-28T09:34:04.820Z,6.4
2022-09-28T09:36:35.610Z,6.4
2022-09-28T09:39:06.215Z,6.2
2022-09-28T09:41:46.809Z,6.3
2022-09-28T09:44:17.535Z,6.4
2022-09-28T09:46:48.215Z,6.6
2022-09-28T09:49:18.821Z,6.7
2022-09-28T09:51:49.410Z,6.8
2022-09-28T09:57:00.154Z,7.1
2022-09-28T09:59:30.766Z,7.1
2022-09-28T10:02:01.422Z,7.3
2022-09-28T10:04:32.651Z,7.4
2022-09-28T10:07:03.224Z,7.2
2022-09-28T10:09:33.807Z,7.2
2022-09-28T10:12:14.378Z,7.2
2022-09-28T10:14:44.997Z,7.3
2022-09-28T10:17:15.598Z,7.2
2022-09-28T10:19:46.197Z,7.3
2022-09-28T10:22:16.845Z,7.4
2022-09-28T10:24:57.467Z,7.6
2022-09-28T10:27:28.082Z,7.5
2022-09-28T10:29:58.674Z,7.3
2022-09-28T10:32:29.276Z,7.4
2022-09-28T10:37:30.036Z,7.4
2022-09-28T10:40:10.687Z,7.4
2022-09-28T10:42:41.374Z,7.3
2022-09-28T10:45:12.032Z,7.4
2022-09-28T10:47:42.590Z,7.3
2022-09-28T10:50:13.189Z,7.4
2022-09-28T10:52:43.784Z,7.6
2022-09-28T10:57:54.524Z,7.4
2022-09-28T11:00:25.118Z,7.6
2022-09-28T11:02:55.808Z,7.5
2022-09-28T11:05:26.440Z,7.5
2022-09-28T11:07:57.020Z,7.4
2022-09-28T11:10:37.597Z,7.5
2022-09-28T11:13:08.206Z,7.6
2022-09-28T11:18:19.299Z,7.4
2022-09-28T11:20:49.891Z,7.4
2022-09-28T11:23:12.901Z,7.5
2022-09-28T11:25:53.517Z,7.6
2022-09-28T11:28:28.733Z,7.6
2022-09-28T11:30:59.345Z,7.8
2022-09-28T11:33:30.052Z,7.7
2022-09-28T11:36:00.646Z,7.8
2022-09-28T11:38:31.268Z,7.7
2022-09-28T11:41:11.909Z,8.0
2022-09-28T11:43:42.516Z,8.0
2022-09-28T11:46:13.120Z,8.0
2022-09-28T11:48:43.973Z,8.0
2022-09-28T11:51:14.577Z,8.0
2022-09-28T11:53:55.179Z,8.0
2022-09-28T11:58:56.098Z,8.1
2022-09-28T12:01:26.718Z,8.3
2022-09-28T12:06:27.441Z,8.4
2022-09-28T12:09:08.053Z,8.5
2022-09-28T12:17:03.935Z,8.5
2022-09-28T12:19:10.549Z,8.5
2022-09-28T12:21:41.181Z,8.6
2022-09-28T12:24:21.810Z,8.6
2022-09-28T12:34:32.823Z,8.7
2022-09-28T12:39:56.823Z,8.8
2022-09-28T12:42:08.422Z,8.8
2022-09-28T12:44:39.034Z,8.8
2022-09-28T12:47:10.114Z,9.0
2022-09-28T12:50:33.628Z,9.1
2022-09-28T12:52:27.121Z,9.0
2022-09-28T12:54:57.834Z,8.9
2022-09-28T12:57:28.531Z,8.9
2022-09-28T12:59:59.118Z,9.0
2022-09-28T13:02:29.704Z,9.0
2022-09-28T13:05:00.454Z,9.0
2022-09-28T13:07:41.053Z,8.9
2022-09-28T13:10:11.689Z,9.0
2022-09-28T13:12:42.318Z,9.0
2022-09-28T13:15:13.048Z,9.1
2022-09-28T13:20:13.848Z,9.2
2022-09-28T13:22:54.394Z,9.3
2022-09-28T13:25:24.978Z,9.4
2022-09-28T13:27:55.574Z,9.4
2022-09-28T13:30:26.247Z,9.5
2022-09-28T13:32:57.190Z,9.3
2022-09-28T13:38:07.948Z,9.4
2022-09-28T13:40:38.592Z,9.4
2022-09-28T13:43:09.385Z,9.3
2022-09-28T13:45:40.254Z,9.4
2022-09-28T13:48:11.080Z,9.3
2022-09-28T13:50:51.707Z,9.4
2022-09-28T13:53:22.322Z,9.5
2022-09-28T13:55:52.917Z,9.3
2022-09-28T14:00:53.642Z,9.3
2022-09-28T14:03:24.435Z,9.3
2022-09-28T14:06:05.058Z,9.4
2022-09-28T14:08:36.682Z,9.3
2022-09-28T14:11:07.266Z,9.4
2022-09-28T14:13:37.867Z,9.4
2022-09-28T14:16:08.466Z,9.4
2022-09-28T14:18:39.265Z,9.5
2022-09-28T14:21:19.855Z,9.6
2022-09-28T14:23:50.443Z,9.2
2022-09-28T14:26:21.056Z,9.1
2022-09-28T14:28:51.673Z,9.0
2022-09-28T14:31:22.309Z,9.0
2022-09-28T14:36:33.071Z,9.1
2022-09-28T14:49:04.230Z,9.0
2022-09-28T15:14:36.171Z,8.5
2022-09-28T15:22:17.065Z,8.4
2022-09-28T15:32:28.054Z,8.1
2022-09-28T15:47:49.359Z,7.8
2022-09-28T15:55:20.230Z,7.6
2022-09-28T15:57:50.845Z,7.6
2022-09-28T16:03:01.736Z,7.4
2022-09-28T16:28:13.692Z,7.0
2022-09-28T16:30:55.092Z,6.9
2022-09-28T16:33:25.903Z,6.9
2022-09-28T16:38:26.646Z,6.8
2022-09-28T16:43:27.368Z,6.7
2022-09-28T16:46:08.075Z,6.7
2022-09-28T16:48:38.894Z,6.6
2022-09-28T16:51:19.483Z,6.5
2022-09-28T16:53:50.067Z,6.4
2022-09-28T16:56:20.634Z,6.4
2022-09-28T16:58:51.261Z,6.2
2022-09-28T17:01:26.169Z,6.2
2022-09-28T17:03:56.985Z,6.1
2022-09-28T17:06:27.587Z,6.0
2022-09-28T17:08:58.184Z,6.0
2022-09-28T17:13:59.214Z,5.9
2022-09-28T17:19:09.989Z,5.9
2022-09-28T17:24:11.272Z,5.8
2022-09-28T17:26:42.373Z,5.8
2022-09-28T17:31:53.139Z,5.7
2022-09-28T17:36:53.855Z,5.6
2022-09-28T17:44:44.766Z,5.3
2022-09-28T17:57:15.952Z,5.2
2022-09-28T17:59:56.576Z,5.1
2022-09-28T18:07:27.445Z,4.8
2022-09-28T18:12:38.433Z,4.6
2022-09-28T18:15:09.030Z,4.5
2022-09-28T18:22:39.947Z,4.3
2022-09-28T18:25:10.534Z,4.3
2022-09-28T18:27:51.311Z,4.3
2022-09-28T18:32:52.044Z,4.3
2022-09-28T19:28:55.704Z,4.8
2022-09-28T19:31:26.276Z,4.8
2022-09-28T19:36:27.001Z,4.8
2022-09-28T19:51:43.830Z,4.9
2022-09-28T19:54:23.342Z,4.9
2022-09-28T21:48:43.275Z,3.5
2022-09-28T21:51:13.900Z,3.5
2022-09-28T21:53:44.486Z,3.5
2022-09-28T21:56:15.078Z,3.6
2022-09-28T22:03:55.966Z,3.5
2022-09-28T22:11:26.936Z,3.4
2022-09-28T22:13:57.547Z,3.4
2022-09-28T22:16:28.231Z,3.3
2022-09-28T22:19:08.887Z,3.2
2022-09-28T22:21:39.579Z,3.1
2022-09-28T22:24:10.190Z,3.1
2022-09-28T22:26:40.888Z,3.1
2022-09-28T22:34:21.757Z,3.0
2022-09-28T22:36:52.358Z,2.9
2022-09-28T22:39:22.959Z,2.9
2022-09-28T22:41:57.966Z,2.8
2022-09-28T22:44:28.566Z,2.9
2022-09-28T22:52:09.465Z,2.7
2022-09-28T22:57:10.208Z,2.8
2022-09-28T23:09:51.408Z,2.7
2022-09-28T23:15:02.191Z,2.7
2022-09-28T23:25:13.228Z,2.6
2022-09-28T23:30:23.990Z,2.7
2022-09-28T23:32:54.567Z,2.7
2022-09-28T23:35:25.164Z,2.7
2022-09-28T23:40:25.938Z,2.8
2022-09-28T23:48:07.124Z,2.8
